Time;durP1;ratioP1;P1;durP2;ratioP2;P2;SDS_P1;SDS_P2;PMS_P1;PMS_P2;Temp;Humidity;BMP_temperature;BMP_pressure;BME280_temperature;BME280_humidity;BME280_pressure;Samples;Min_cycle;Max_cycle;Signal;HPM_P1;HPM_P2
2022/06/16 00:01:57;;;;;;;6.40;4.03;;;13.00;99.90;;;;;;5101062;28;20450;-67
2022/06/16 00:04:23;;;;;;;5.75;4.43;;;13.00;99.90;;;;;;5088380;28;20043;-68
2022/06/16 00:06:49;;;;;;;6.90;3.95;;;13.00;99.90;;;;;;5092754;28;20048;-67
2022/06/16 00:09:15;;;;;;;8.77;4.53;;;13.00;99.90;;;;;;5070964;28;20072;-68
2022/06/16 00:11:41;;;;;;;8.77;3.85;;;13.00;99.90;;;;;;5089337;28;20067;-68
2022/06/16 00:14:07;;;;;;;6.38;4.07;;;13.00;99.90;;;;;;5087920;28;20040;-68
2022/06/16 00:16:33;;;;;;;6.82;4.00;;;13.00;99.90;;;;;;5099099;28;20062;-68
2022/06/16 00:18:59;;;;;;;7.65;4.63;;;12.90;99.90;;;;;;5091582;28;20047;-68
2022/06/16 00:21:25;;;;;;;10.10;4.60;;;12.90;99.90;;;;;;5088797;28;20478;-68
2022/06/16 00:23:50;;;;;;;10.35;4.15;;;12.90;99.90;;;;;;5089540;28;20919;-68
2022/06/16 00:26:19;;;;;;;8.23;4.80;;;12.80;99.90;;;;;;5088493;28;20097;-68
2022/06/16 00:28:48;;;;;;;8.98;4.63;;;12.70;99.90;;;;;;5092654;28;20042;-68
2022/06/16 00:31:17;;;;;;;8.40;3.78;;;12.80;99.90;;;;;;5068832;28;20032;-68
2022/06/16 00:33:44;;;;;;;5.90;4.05;;;12.70;99.90;;;;;;5088157;28;20058;-68
2022/06/16 00:36:11;;;;;;;9.32;4.05;;;12.70;99.90;;;;;;5070237;28;20096;-68
2022/06/16 00:38:37;;;;;;;11.63;3.97;;;12.60;99.90;;;;;;5086341;28;20043;-68
2022/06/16 00:41:03;;;;;;;4.65;3.53;;;12.60;99.90;;;;;;5070495;28;20150;-68
2022/06/16 00:43:29;;;;;;;6.13;3.35;;;12.60;99.90;;;;;;5094066;28;20032;-68
2022/06/16 00:46:21;;;;;;;3.78;2.90;;;12.60;99.90;;;;;;5091078;28;20064;-68
2022/06/16 00:48:53;;;;;;;4.53;3.17;;;12.70;99.90;;;;;;5070163;28;20485;-67
2022/06/16 00:51:25;;;;;;;6.18;2.95;;;12.60;99.90;;;;;;5076949;28;20047;-68
2022/06/16 00:53:58;;;;;;;6.85;4.10;;;12.50;99.90;;;;;;5092561;28;20073;-68
2022/06/16 00:56:24;;;;;;;5.47;3.33;;;12.60;99.90;;;;;;5107201;27;20509;-68
2022/06/16 00:58:56;;;;;;;5.32;3.90;;;12.50;99.90;;;;;;5092630;28;20067;-67
2022/06/16 01:01:22;;;;;;;5.10;3.42;;;12.50;99.90;;;;;;5090413;28;20039;-68
2022/06/16 01:06:33;;;;;;;;;;;12.40;99.90;;;;;;5091122;28;20097;-67
2022/06/16 01:09:04;;;;;;;7.47;3.88;;;12.30;99.90;;;;;;5075679;28;19920;-67
2022/06/16 01:14:36;;;;;;;7.13;2.95;;;12.20;99.90;;;;;;5093679;28;20436;-68
2022/06/16 01:17:14;;;;;;;5.05;3.63;;;12.20;99.90;;;;;;5070883;28;20047;-68
2022/06/16 01:19:55;;;;;;;4.45;3.83;;;12.10;99.90;;;;;;5094700;28;20450;-68
2022/06/16 01:22:49;;;;;;;8.30;4.53;;;12.10;99.90;;;;;;5072755;28;20036;-67
2022/06/16 01:25:29;;;;;;;6.40;4.22;;;12.20;99.90;;;;;;5073599;28;20037;-67
2022/06/16 01:28:52;;;;;;;7.75;4.20;;;12.20;99.90;;;;;;5072142;28;20627;-68
2022/06/16 01:31:28;;;;;;;6.75;4.22;;;12.20;99.90;;;;;;5050443;28;20052;-67
2022/06/16 01:34:06;;;;;;;8.48;5.43;;;12.10;99.90;;;;;;5075440;28;20132;-68
2022/06/16 01:36:37;;;;;;;5.80;4.78;;;12.10;99.90;;;;;;5075917;28;20359;-68
2022/06/16 01:39:26;;;;;;;8.20;4.57;;;12.00;99.90;;;;;;5072356;28;20036;-68
2022/06/16 01:41:58;;;;;;;8.40;4.57;;;12.00;99.90;;;;;;5076150;28;20040;-68
2022/06/16 01:44:38;;;;;;;11.73;4.30;;;12.00;99.90;;;;;;5076179;28;20028;-68
2022/06/16 01:47:11;;;;;;;5.97;4.22;;;12.00;99.90;;;;;;5073764;28;20089;-68
2022/06/16 01:49:43;;;;;;;10.13;4.97;;;12.00;99.90;;;;;;5073051;28;20048;-68
2022/06/16 01:52:20;;;;;;;7.85;4.20;;;12.10;99.90;;;;;;5091074;28;20047;-68
2022/06/16 01:54:52;;;;;;;14.70;4.82;;;12.20;99.90;;;;;;5089763;28;20040;-68
2022/06/16 01:57:25;;;;;;;7.72;4.78;;;12.10;99.90;;;;;;5070724;28;20044;-67
2022/06/16 02:00:04;;;;;;;6.05;4.47;;;12.20;99.90;;;;;;5073205;28;20177;-67
2022/06/16 02:02:35;;;;;;;5.65;4.80;;;12.20;99.90;;;;;;5087378;28;20035;-67
2022/06/16 02:05:10;;;;;;;7.80;4.70;;;12.10;99.90;;;;;;5072606;28;20036;-68
2022/06/16 02:07:46;;;;;;;7.28;4.63;;;12.10;99.90;;;;;;5069787;28;20100;-68
2022/06/16 02:10:21;;;;;;;7.10;4.40;;;12.20;99.90;;;;;;5084939;28;20048;-68
2022/06/16 02:12:57;;;;;;;8.73;4.88;;;12.20;99.90;;;;;;5081826;28;20545;-68
2022/06/16 02:15:38;;;;;;;10.57;5.20;;;12.20;99.90;;;;;;5061860;28;20448;-68
2022/06/16 02:18:08;;;;;;;7.55;5.03;;;12.20;99.90;;;;;;5081182;28;20040;-68
2022/06/16 02:20:57;;;;;;;6.93;4.60;;;12.20;99.90;;;;;;5064561;28;20040;-68
2022/06/16 02:23:22;;;;;;;9.70;5.65;;;12.20;99.90;;;;;;5082755;28;20066;-68
2022/06/16 02:25:53;;;;;;;9.13;5.40;;;12.10;99.90;;;;;;5063239;28;20127;-68
2022/06/16 02:28:18;;;;;;;8.98;5.18;;;12.20;99.90;;;;;;5080274;28;20036;-68
2022/06/16 02:31:12;;;;;;;10.65;5.20;;;12.20;99.90;;;;;;5069333;28;20052;-68
2022/06/16 02:34:07;;;;;;;9.38;5.13;;;12.20;99.90;;;;;;5073391;28;20040;-68
2022/06/16 02:37:05;;;;;;;9.00;5.15;;;12.30;99.90;;;;;;5060567;28;20043;-68
2022/06/16 02:39:45;;;;;;;11.90;5.57;;;12.20;99.90;;;;;;5079298;28;20040;-68
2022/06/16 02:42:17;;;;;;;7.90;5.30;;;12.20;99.90;;;;;;5074726;28;20051;-68
2022/06/16 02:45:03;;;;;;;8.10;5.43;;;12.20;99.90;;;;;;5090383;28;20036;-68
2022/06/16 02:47:58;;;;;;;7.10;4.90;;;12.10;99.90;;;;;;5073685;28;20040;-68
2022/06/16 02:50:37;;;;;;;8.95;5.03;;;12.20;99.90;;;;;;5100522;27;20071;-68
2022/06/16 02:53:33;;;;;;;11.13;5.90;;;12.10;99.90;;;;;;5074241;28;20044;-68
2022/06/16 02:56:12;;;;;;;23.42;6.88;;;12.10;99.90;;;;;;5087486;28;20072;-68
2022/06/16 02:58:41;;;;;;;9.85;4.50;;;12.10;99.90;;;;;;5102262;27;20047;-68
2022/06/16 03:01:07;;;;;;;7.25;4.90;;;12.10;99.90;;;;;;5070966;28;20044;-68
2022/06/16 03:03:34;;;;;;;7.90;4.85;;;12.20;99.90;;;;;;5075467;28;20050;-68
2022/06/16 03:06:00;;;;;;;5.63;4.28;;;12.20;99.90;;;;;;5070267;28;20032;-68
2022/06/16 03:08:28;;;;;;;8.65;5.18;;;12.10;99.90;;;;;;5069081;28;20048;-68
2022/06/16 03:10:58;;;;;;;7.95;5.18;;;12.10;99.90;;;;;;5091995;28;20028;-68
2022/06/16 03:13:28;;;;;;;8.27;5.47;;;12.10;99.90;;;;;;5089723;28;20039;-67
2022/06/16 03:15:56;;;;;;;7.00;5.07;;;12.10;99.90;;;;;;5070992;28;21949;-68
2022/06/16 03:18:23;;;;;;;6.57;5.30;;;12.00;99.90;;;;;;5074770;28;20088;-68
2022/06/16 03:20:49;;;;;;;8.98;5.28;;;12.10;99.90;;;;;;5054490;28;20050;-68
2022/06/16 03:23:15;;;;;;;7.35;5.10;;;12.00;99.90;;;;;;5060021;28;20536;-67
2022/06/16 03:25:42;;;;;;;12.05;5.57;;;12.00;99.90;;;;;;5092974;28;20043;-68
2022/06/16 03:28:08;;;;;;;7.82;5.40;;;12.00;99.90;;;;;;5065897;28;20058;-68
2022/06/16 03:30:35;;;;;;;7.10;5.10;;;11.90;99.90;;;;;;5104201;27;20036;-68
2022/06/16 03:33:02;;;;;;;6.55;4.90;;;11.90;99.90;;;;;;5095012;28;20032;-68
2022/06/16 03:35:28;;;;;;;9.55;4.78;;;11.90;99.90;;;;;;5089574;28;20131;-68
2022/06/16 03:37:54;;;;;;;7.30;5.28;;;11.90;99.90;;;;;;5089958;28;20071;-68
2022/06/16 03:40:20;;;;;;;7.40;5.38;;;11.80;99.90;;;;;;5093583;28;20502;-68
2022/06/16 03:42:47;;;;;;;14.60;5.75;;;11.80;99.90;;;;;;5068479;28;20424;-68
2022/06/16 03:45:13;;;;;;;6.97;4.97;;;11.80;99.90;;;;;;5068338;28;20773;-68
2022/06/16 03:47:39;;;;;;;6.10;4.55;;;11.80;99.90;;;;;;5087188;28;20028;-68
2022/06/16 03:50:06;;;;;;;8.45;5.18;;;11.80;99.90;;;;;;5090469;28;20101;-67
2022/06/16 03:52:31;;;;;;;7.25;5.22;;;11.80;99.90;;;;;;5094271;28;20039;-68
2022/06/16 03:54:57;;;;;;;9.75;4.82;;;11.70;99.90;;;;;;5108798;28;20040;-68
2022/06/16 03:57:22;;;;;;;8.65;4.97;;;11.80;99.90;;;;;;5070417;28;20059;-68
2022/06/16 03:59:48;;;;;;;6.80;4.82;;;11.70;99.90;;;;;;5089667;28;20064;-68
2022/06/16 04:02:13;;;;;;;8.20;6.05;;;11.70;99.90;;;;;;5067333;28;20036;-68
2022/06/16 04:04:39;;;;;;;6.70;5.10;;;11.70;99.90;;;;;;5072511;28;20038;-68
2022/06/16 04:07:05;;;;;;;7.43;5.13;;;11.70;99.90;;;;;;5071944;28;20127;-68
2022/06/16 04:09:30;;;;;;;8.57;5.20;;;11.80;99.90;;;;;;5072221;28;20093;-68
2022/06/16 04:11:56;;;;;;;7.35;5.00;;;11.80;99.90;;;;;;5070629;28;20047;-68
2022/06/16 04:14:22;;;;;;;7.25;5.45;;;12.10;99.90;;;;;;5069867;28;20036;-67
2022/06/16 04:16:52;;;;;;;7.53;4.65;;;12.00;99.90;;;;;;5094352;28;20047;-68
2022/06/16 04:19:21;;;;;;;7.55;4.85;;;12.10;99.90;;;;;;5072513;28;20067;-68
2022/06/16 04:21:48;;;;;;;9.27;5.35;;;12.30;99.90;;;;;;5094538;28;20046;-68
2022/06/16 04:24:14;;;;;;;5.78;5.00;;;12.50;99.90;;;;;;5087591;28;20127;-68
2022/06/16 04:26:41;;;;;;;7.82;5.07;;;12.70;99.90;;;;;;5072249;28;20042;-68
2022/06/16 04:29:08;;;;;;;9.95;5.28;;;12.80;99.90;;;;;;5072597;28;20429;-68
2022/06/16 04:31:34;;;;;;;9.05;5.00;;;13.00;99.90;;;;;;5104116;27;20040;-68
2022/06/16 04:34:00;;;;;;;9.85;5.70;;;13.30;99.90;;;;;;5069609;28;20371;-68
2022/06/16 04:36:26;;;;;;;8.27;5.30;;;13.60;99.90;;;;;;5087103;28;20045;-68
2022/06/16 04:38:53;;;;;;;5.70;5.13;;;13.50;99.90;;;;;;5073244;28;20473;-68
2022/06/16 04:41:19;;;;;;;5.65;4.75;;;13.60;99.90;;;;;;5090162;28;20038;-68
2022/06/16 04:43:44;;;;;;;8.85;5.47;;;13.70;99.90;;;;;;5058839;28;20040;-68
2022/06/16 04:46:13;;;;;;;5.65;4.70;;;13.70;99.90;;;;;;5089664;28;21315;-68
2022/06/16 04:48:39;;;;;;;7.40;4.60;;;13.70;99.90;;;;;;5092993;28;20066;-68
2022/06/16 04:51:04;;;;;;;6.82;4.60;;;13.80;99.90;;;;;;5074509;28;20486;-68
2022/06/16 04:53:33;;;;;;;9.25;5.22;;;13.80;99.90;;;;;;5071623;28;20040;-68
2022/06/16 04:56:01;;;;;;;10.57;5.30;;;13.90;99.90;;;;;;5091060;28;20119;-68
2022/06/16 04:58:28;;;;;;;8.73;5.15;;;13.90;99.90;;;;;;5094682;28;20096;-68
2022/06/16 05:00:54;;;;;;;7.53;4.30;;;14.10;99.90;;;;;;5070967;28;20040;-68
2022/06/16 05:03:21;;;;;;;8.15;4.35;;;14.20;99.90;;;;;;5092742;28;20097;-68
2022/06/16 05:05:48;;;;;;;5.55;3.55;;;14.50;99.90;;;;;;5075866;28;20064;-68
2022/06/16 05:08:16;;;;;;;5.20;3.90;;;14.60;99.90;;;;;;5088527;28;20043;-68
2022/06/16 05:10:42;;;;;;;8.30;4.75;;;14.60;99.90;;;;;;5072874;28;20048;-68
2022/06/16 05:13:09;;;;;;;7.00;3.97;;;14.70;99.90;;;;;;5074383;28;20052;-68
2022/06/16 05:15:35;;;;;;;6.97;4.25;;;14.70;99.90;;;;;;5087581;28;20089;-68
2022/06/16 05:18:02;;;;;;;8.93;3.80;;;14.80;99.90;;;;;;5093083;28;20050;-68
2022/06/16 05:20:28;;;;;;;12.15;4.78;;;14.70;99.90;;;;;;5069191;28;20116;-67
2022/06/16 05:22:53;;;;;;;10.60;5.97;;;14.80;99.90;;;;;;5090331;28;20082;-68
2022/06/16 05:25:19;;;;;;;7.47;4.47;;;14.80;99.90;;;;;;5096635;28;20119;-68
2022/06/16 05:27:45;;;;;;;6.57;4.28;;;14.80;99.90;;;;;;5096490;28;20515;-67
2022/06/16 05:30:10;;;;;;;6.10;4.05;;;14.80;99.90;;;;;;5073131;28;20043;-68
2022/06/16 05:32:36;;;;;;;8.05;3.90;;;14.90;99.90;;;;;;5092630;28;20044;-66
2022/06/16 05:35:03;;;;;;;5.72;4.03;;;14.90;99.90;;;;;;5076240;28;20040;-67
2022/06/16 05:37:30;;;;;;;7.15;4.20;;;14.90;99.90;;;;;;5102372;28;20031;-67
2022/06/16 05:39:56;;;;;;;5.95;3.85;;;14.80;99.90;;;;;;5100312;28;20039;-67
2022/06/16 05:42:21;;;;;;;7.93;4.53;;;14.90;99.90;;;;;;5093994;28;20746;-67
2022/06/16 05:44:47;;;;;;;7.95;4.43;;;15.00;99.90;;;;;;5092212;28;20071;-67
2022/06/16 05:47:13;;;;;;;6.65;4.20;;;15.30;99.90;;;;;;5092986;28;20031;-67
2022/06/16 05:49:39;;;;;;;12.30;4.30;;;15.50;99.90;;;;;;5093892;28;20065;-67
2022/06/16 05:52:13;;;;;;;11.55;4.68;;;15.70;99.90;;;;;;5114334;27;20048;-67
2022/06/16 05:54:40;;;;;;;7.22;4.70;;;15.80;99.90;;;;;;5075557;28;20036;-67
2022/06/16 05:57:08;;;;;;;8.90;4.22;;;16.10;99.90;;;;;;5093409;28;20036;-67
2022/06/16 05:59:35;;;;;;;6.25;3.53;;;16.50;99.90;;;;;;5074540;28;20044;-67
2022/06/16 06:02:01;;;;;;;6.53;3.92;;;17.00;99.90;;;;;;5090031;28;20089;-67
2022/06/16 06:04:27;;;;;;;5.80;3.13;;;17.50;99.90;;;;;;5095420;28;20060;-67
2022/06/16 06:06:54;;;;;;;4.25;2.10;;;17.90;99.90;;;;;;5066888;28;20154;-67
2022/06/16 06:17:36;;;;;;;5.45;2.15;;;19.00;99.90;;;;;;5077448;28;20047;-67
2022/06/16 06:20:02;;;;;;;6.30;3.03;;;19.40;99.90;;;;;;5095717;28;20497;-67
2022/06/16 06:22:28;;;;;;;5.55;2.22;;;19.60;99.90;;;;;;5071508;28;20059;-67
2022/06/16 06:24:58;;;;;;;3.97;1.48;;;19.80;99.90;;;;;;5096542;28;20070;-67
2022/06/16 06:27:45;;;;;;;3.90;2.28;;;20.00;99.90;;;;;;5081827;28;20044;-67
2022/06/16 06:30:23;;;;;;;3.65;1.17;;;20.20;99.90;;;;;;5097039;28;20093;-67
2022/06/16 06:32:49;;;;;;;3.25;0.90;;;20.40;99.90;;;;;;5094215;28;20597;-67
2022/06/16 06:35:16;;;;;;;4.20;0.90;;;20.50;99.90;;;;;;5074465;28;20075;-67
2022/06/16 06:37:43;;;;;;;2.75;0.40;;;20.60;99.90;;;;;;5090851;28;20733;-67
2022/06/16 06:40:16;;;;;;;2.03;0.60;;;20.70;99.90;;;;;;5074402;28;20047;-67
2022/06/16 06:42:41;;;;;;;2.95;0.80;;;20.70;99.90;;;;;;5094199;28;20152;-67
2022/06/16 06:45:08;;;;;;;3.80;1.40;;;20.80;99.90;;;;;;5111389;27;20498;-67
2022/06/16 06:47:33;;;;;;;1.70;0.70;;;20.90;99.90;;;;;;5076676;28;20071;-67
2022/06/16 06:49:59;;;;;;;2.45;0.50;;;20.80;99.90;;;;;;5076120;28;20064;-67
2022/06/16 06:52:25;;;;;;;3.83;1.52;;;20.90;99.90;;;;;;5111210;27;20040;-67
2022/06/16 06:54:51;;;;;;;5.10;0.95;;;21.00;99.90;;;;;;5075022;28;20176;-67
2022/06/16 06:57:21;;;;;;;4.43;0.90;;;20.90;99.90;;;;;;5076307;28;20588;-67
2022/06/16 06:59:46;;;;;;;2.60;0.60;;;20.90;99.90;;;;;;5078197;28;20036;-67
2022/06/16 07:02:14;;;;;;;3.45;0.95;;;20.80;99.90;;;;;;5088629;28;20039;-67
2022/06/16 07:04:41;;;;;;;1.75;0.60;;;21.00;99.90;;;;;;5094530;28;20478;-67
2022/06/16 07:07:08;;;;;;;6.05;0.88;;;21.00;99.90;;;;;;5090274;28;20068;-67
2022/06/16 07:09:34;;;;;;;2.42;0.70;;;21.00;99.90;;;;;;5080561;28;20085;-67
2022/06/16 07:12:00;;;;;;;2.30;0.65;;;21.20;99.90;;;;;;5096469;28;20441;-67
2022/06/16 07:14:26;;;;;;;2.38;0.70;;;21.30;99.90;;;;;;5077213;28;20044;-67
2022/06/16 07:16:52;;;;;;;2.78;0.77;;;21.40;99.90;;;;;;5094944;28;20036;-67
2022/06/16 07:19:18;;;;;;;1.23;0.50;;;21.40;99.90;;;;;;5074222;28;20040;-67
2022/06/16 07:21:44;;;;;;;2.22;0.63;;;21.50;99.90;;;;;;5092110;28;20060;-68
2022/06/16 07:24:10;;;;;;;1.65;0.30;;;21.50;99.90;;;;;;5110496;27;20068;-67
2022/06/16 07:26:35;;;;;;;2.17;0.30;;;21.40;99.90;;;;;;5074044;28;20040;-67
2022/06/16 07:29:01;;;;;;;1.20;0.32;;;21.30;99.90;;;;;;5102523;27;20043;-67
2022/06/16 07:31:28;;;;;;;1.58;0.60;;;21.40;99.90;;;;;;5104588;27;20119;-67
2022/06/16 07:33:55;;;;;;;2.75;0.60;;;21.30;99.90;;;;;;5063412;28;20123;-67
2022/06/16 07:36:21;;;;;;;1.42;0.40;;;21.00;99.90;;;;;;5075063;28;20043;-67
2022/06/16 07:38:46;;;;;;;3.70;0.43;;;21.10;99.90;;;;;;5077216;28;20401;-67
2022/06/16 07:43:57;;;;;;;2.03;0.35;;;21.30;99.90;;;;;;5095501;28;20120;-67
2022/06/16 07:46:24;;;;;;;2.97;0.55;;;21.50;99.90;;;;;;5094133;28;20028;-67
2022/06/16 07:48:51;;;;;;;7.28;0.98;;;21.60;99.90;;;;;;5076015;28;20105;-67
2022/06/16 07:51:17;;;;;;;3.45;0.77;;;21.80;99.90;;;;;;5091643;28;20044;-67
2022/06/16 07:53:43;;;;;;;2.38;0.40;;;21.90;99.90;;;;;;5074326;28;20542;-67
2022/06/16 07:56:09;;;;;;;1.95;0.40;;;21.80;99.90;;;;;;5076114;28;20047;-67
2022/06/16 07:58:35;;;;;;;2.22;0.50;;;21.80;99.90;;;;;;5077644;28;20036;-67
2022/06/16 08:01:01;;;;;;;1.52;0.50;;;21.80;99.90;;;;;;5075822;28;20032;-67
2022/06/16 08:03:28;;;;;;;1.80;0.47;;;21.90;99.90;;;;;;5093477;28;20055;-67
2022/06/16 08:05:58;;;;;;;2.25;0.43;;;21.90;99.90;;;;;;5071912;28;20045;-67
2022/06/16 08:08:25;;;;;;;4.22;0.77;;;21.80;99.90;;;;;;5079246;28;20366;-67
2022/06/16 08:10:52;;;;;;;4.20;0.75;;;21.60;99.90;;;;;;5072183;28;20074;-67
2022/06/16 08:13:20;;;;;;;1.50;0.40;;;21.60;99.90;;;;;;5096723;28;20038;-67
2022/06/16 08:15:46;;;;;;;1.80;0.65;;;21.70;99.90;;;;;;5095261;28;20154;-67
2022/06/16 08:18:14;;;;;;;1.40;0.45;;;21.90;99.90;;;;;;5076941;28;20490;-67
2022/06/16 08:20:41;;;;;;;2.50;0.50;;;22.30;99.90;;;;;;5072193;28;20032;-67
2022/06/16 08:23:06;;;;;;;2.75;1.25;;;22.50;99.90;;;;;;5079098;28;20122;-67
2022/06/16 08:25:32;;;;;;;3.80;1.05;;;22.70;99.90;;;;;;5072116;28;20135;-67
2022/06/16 08:27:59;;;;;;;1.77;0.55;;;22.80;99.90;;;;;;5108962;28;20226;-67
2022/06/16 08:30:25;;;;;;;2.40;0.55;;;23.00;99.90;;;;;;5095611;28;20036;-67
2022/06/16 08:32:51;;;;;;;2.10;0.57;;;23.10;99.90;;;;;;5071434;28;20483;-67
2022/06/16 08:35:17;;;;;;;2.40;0.68;;;23.30;99.90;;;;;;5091886;28;20035;-67
2022/06/16 08:37:43;;;;;;;2.75;0.75;;;23.30;99.90;;;;;;5078371;28;20043;-67
2022/06/16 08:40:10;;;;;;;4.85;1.00;;;23.40;99.90;;;;;;5111501;28;20162;-67
2022/06/16 08:42:46;;;;;;;6.63;0.90;;;23.50;99.90;;;;;;5076441;28;20041;-67
2022/06/16 08:45:38;;;;;;;5.53;0.85;;;23.60;99.90;;;;;;5090458;28;20279;-67
2022/06/16 08:48:23;;;;;;;5.13;1.63;;;23.80;99.90;;;;;;5083487;28;20067;-67
2022/06/16 08:51:01;;;;;;;4.32;1.42;;;23.80;99.90;;;;;;5094204;28;21762;-67
2022/06/16 08:53:35;;;;;;;6.97;1.50;;;23.30;99.90;;;;;;5075457;28;20043;-67
2022/06/16 08:56:11;;;;;;;3.17;1.30;;;23.10;99.90;;;;;;5089259;28;20537;-67
2022/06/16 08:58:55;;;;;;;3.90;1.33;;;23.20;99.90;;;;;;5064177;28;20050;-67
2022/06/16 09:01:25;;;;;;;4.30;1.42;;;23.30;99.90;;;;;;5076174;28;20048;-67
2022/06/16 09:04:08;;;;;;;4.03;0.98;;;23.30;99.90;;;;;;5092003;28;20051;-67
2022/06/16 09:06:56;;;;;;;3.67;1.00;;;23.30;99.90;;;;;;5093138;28;20461;-67
2022/06/16 09:13:03;;;;;;;3.75;1.70;;;23.50;99.90;;;;;;5098281;28;20044;-67
2022/06/16 09:15:34;;;;;;;3.47;1.48;;;23.30;99.90;;;;;;5092887;28;20568;-67
2022/06/16 09:18:31;;;;;;;3.88;1.27;;;23.20;99.90;;;;;;5094804;28;20406;-67
2022/06/16 09:21:07;;;;;;;2.75;1.30;;;23.30;99.90;;;;;;5078800;28;20078;-67
2022/06/16 09:23:51;;;;;;;6.78;1.50;;;23.40;99.90;;;;;;5085031;28;20479;-67
2022/06/16 09:26:27;;;;;;;4.97;1.53;;;23.70;99.90;;;;;;5079125;28;20153;-67
2022/06/16 09:29:12;;;;;;;4.75;1.70;;;23.70;99.90;;;;;;5113125;27;20692;-68
2022/06/16 09:32:16;;;;;;;4.28;1.52;;;23.60;99.90;;;;;;5098246;28;20039;-67
2022/06/16 09:34:53;;;;;;;5.15;1.40;;;23.60;99.90;;;;;;5096029;28;20047;-67
2022/06/16 09:37:25;;;;;;;6.00;2.00;;;23.70;99.90;;;;;;5095185;28;20036;-67
2022/06/16 09:39:58;;;;;;;5.80;1.50;;;24.10;99.90;;;;;;5079485;28;20572;-67
2022/06/16 09:42:51;;;;;;;3.88;2.10;;;24.10;99.90;;;;;;5076893;28;20085;-67
2022/06/16 09:45:24;;;;;;;4.22;1.65;;;24.10;99.90;;;;;;5072158;28;20044;-67
2022/06/16 09:48:09;;;;;;;5.60;1.90;;;24.00;99.90;;;;;;5091578;28;20115;-67
2022/06/16 09:50:56;;;;;;;4.47;1.50;;;24.10;99.90;;;;;;5080144;28;20677;-67
2022/06/16 09:53:43;;;;;;;4.90;1.88;;;24.10;99.90;;;;;;5079609;28;20578;-67
2022/06/16 09:56:28;;;;;;;4.53;1.77;;;24.00;99.90;;;;;;5093485;28;21624;-67
2022/06/16 09:59:01;;;;;;;6.63;1.63;;;24.20;99.90;;;;;;5109305;27;20044;-67
2022/06/16 10:01:36;;;;;;;2.60;1.77;;;24.40;99.90;;;;;;5077969;28;20047;-67
2022/06/16 10:04:08;;;;;;;4.80;1.90;;;24.60;99.90;;;;;;5095634;28;20035;-67
2022/06/16 10:06:56;;;;;;;5.05;1.70;;;24.70;99.90;;;;;;5076836;28;20043;-67
2022/06/16 10:09:37;;;;;;;6.28;2.28;;;24.70;98.70;;;;;;5075818;28;20439;-67
2022/06/16 10:12:07;;;;;;;10.02;1.73;;;24.80;99.90;;;;;;5079070;28;20122;-67
2022/06/16 10:14:42;;;;;;;4.85;1.63;;;24.90;99.90;;;;;;5099999;28;20547;-67
2022/06/16 10:17:10;;;;;;;8.07;2.27;;;24.90;99.80;;;;;;5095111;28;20075;-67
2022/06/16 10:19:39;;;;;;;4.78;1.50;;;24.90;99.50;;;;;;5098785;28;20099;-67
2022/06/16 10:22:05;;;;;;;2.13;1.45;;;24.50;99.50;;;;;;5091567;28;20036;-67
2022/06/16 10:25:06;;;;;;;3.53;1.85;;;24.30;99.00;;;;;;5080213;28;20035;-67
2022/06/16 10:27:44;;;;;;;4.78;1.50;;;24.10;99.40;;;;;;5078726;28;20044;-67
2022/06/16 10:30:20;;;;;;;3.50;1.42;;;23.90;99.90;;;;;;5082075;28;20104;-67
2022/06/16 10:32:56;;;;;;;5.53;1.77;;;23.80;99.90;;;;;;5096511;28;20100;-67
2022/06/16 10:35:22;;;;;;;3.33;1.25;;;24.00;99.90;;;;;;5096588;28;20054;-67
2022/06/16 10:37:51;;;;;;;3.30;1.20;;;24.20;99.90;;;;;;5108794;27;20398;-67
2022/06/16 10:40:25;;;;;;;5.57;1.25;;;24.30;99.90;;;;;;5091117;28;20386;-67
2022/06/16 10:42:56;;;;;;;7.15;1.50;;;24.40;99.90;;;;;;5081536;28;20071;-67
2022/06/16 10:45:26;;;;;;;3.60;1.05;;;24.50;99.90;;;;;;5093697;28;20036;-67
2022/06/16 10:48:07;;;;;;;3.85;1.08;;;24.30;99.90;;;;;;5080056;28;20126;-67
2022/06/16 10:51:07;;;;;;;3.45;1.38;;;24.20;99.90;;;;;;5096286;28;20063;-67
2022/06/16 10:53:40;;;;;;;5.00;1.63;;;24.10;99.50;;;;;;5070804;28;20058;-67
2022/06/16 10:56:16;;;;;;;3.58;1.60;;;24.10;99.90;;;;;;5103466;27;20539;-67
2022/06/16 10:58:59;;;;;;;3.22;1.60;;;24.00;99.90;;;;;;5073863;28;20488;-67
2022/06/16 11:01:50;;;;;;;3.20;1.42;;;24.20;99.90;;;;;;5079466;28;20043;-67
2022/06/16 11:04:21;;;;;;;2.63;1.30;;;24.30;99.20;;;;;;5092233;28;20411;-67
2022/06/16 11:06:52;;;;;;;6.05;1.52;;;24.20;98.40;;;;;;5092793;28;20032;-67
2022/06/16 11:09:21;;;;;;;3.03;1.33;;;24.20;99.90;;;;;;5075951;28;20120;-67
2022/06/16 11:11:53;;;;;;;3.35;1.30;;;24.20;99.90;;;;;;5070986;28;20088;-67
2022/06/16 11:14:30;;;;;;;4.10;1.50;;;24.00;99.90;;;;;;5097276;28;20039;-67
2022/06/16 11:16:57;;;;;;;4.28;1.50;;;24.00;99.90;;;;;;5091695;28;20050;-67
2022/06/16 11:19:34;;;;;;;4.97;1.60;;;24.10;99.90;;;;;;5079201;28;20035;-67
2022/06/16 11:22:23;;;;;;;4.05;1.48;;;24.30;99.90;;;;;;5089948;28;20043;-67
2022/06/16 11:25:21;;;;;;;5.95;1.95;;;24.40;99.80;;;;;;5056205;28;20052;-67
2022/06/16 11:27:50;;;;;;;3.97;1.25;;;24.40;99.90;;;;;;5080569;28;20056;-67
2022/06/16 11:30:37;;;;;;;5.20;1.40;;;24.60;99.90;;;;;;5108106;27;20051;-67
2022/06/16 11:33:05;;;;;;;3.67;1.00;;;24.70;99.60;;;;;;5094978;28;20102;-67
2022/06/16 11:35:52;;;;;;;2.33;1.38;;;24.80;99.90;;;;;;5080265;28;20064;-67
2022/06/16 11:38:39;;;;;;;2.97;1.48;;;25.00;99.90;;;;;;5075880;28;20042;-67
2022/06/16 11:41:09;;;;;;;2.70;1.70;;;25.00;99.20;;;;;;5063211;28;20044;-67
2022/06/16 11:43:57;;;;;;;4.82;1.30;;;25.20;99.70;;;;;;5108439;27;20119;-67
2022/06/16 11:46:41;;;;;;;7.40;1.95;;;25.10;99.80;;;;;;5091192;28;20051;-67
2022/06/16 11:49:33;;;;;;;4.30;1.00;;;24.90;99.60;;;;;;5078224;28;20047;-67
2022/06/16 11:52:24;;;;;;;6.07;1.45;;;24.80;99.90;;;;;;5083122;28;20050;-67
2022/06/16 11:55:19;;;;;;;5.40;1.70;;;24.80;99.70;;;;;;5093238;28;20383;-67
2022/06/16 11:57:52;;;;;;;4.57;1.90;;;24.80;99.90;;;;;;5006185;28;20062;-67
2022/06/16 12:00:36;;;;;;;7.95;2.33;;;24.70;98.80;;;;;;5064615;28;20065;-67
2022/06/16 12:03:21;;;;;;;5.57;1.52;;;24.30;98.60;;;;;;5074107;28;20697;-67
2022/06/16 12:06:08;;;;;;;5.70;1.83;;;24.00;99.70;;;;;;5077925;28;20405;-67
2022/06/16 12:08:43;;;;;;;2.78;1.27;;;23.80;99.90;;;;;;5074876;28;20298;-67
2022/06/16 12:11:36;;;;;;;2.38;1.52;;;23.80;99.90;;;;;;5074953;28;20046;-67
2022/06/16 12:14:28;;;;;;;5.10;1.90;;;23.90;99.90;;;;;;5082988;28;20064;-67
2022/06/16 12:17:03;;;;;;;7.15;1.25;;;24.10;99.90;;;;;;5094080;28;20094;-67
2022/06/16 12:19:39;;;;;;;3.78;1.58;;;24.00;99.90;;;;;;5061074;28;20493;-67
2022/06/16 12:22:31;;;;;;;3.40;1.30;;;23.90;99.90;;;;;;5072277;28;20046;-67
2022/06/16 12:25:11;;;;;;;4.45;1.60;;;23.80;99.90;;;;;;5095096;28;20434;-67
2022/06/16 12:27:50;;;;;;;4.68;1.27;;;23.80;99.90;;;;;;5076160;28;20048;-67
2022/06/16 12:30:36;;;;;;;7.43;1.95;;;23.80;99.90;;;;;;5090915;28;20123;-67
2022/06/16 12:33:30;;;;;;;3.15;1.70;;;24.00;99.90;;;;;;5112440;28;20067;-67
2022/06/16 12:36:06;;;;;;;4.40;1.75;;;24.20;99.90;;;;;;5071343;28;20046;-67
2022/06/16 12:38:36;;;;;;;7.22;1.73;;;24.50;99.90;;;;;;5093270;28;20032;-67
2022/06/16 12:41:12;;;;;;;4.88;1.80;;;24.80;99.90;;;;;;5096884;28;20555;-67
2022/06/16 12:44:03;;;;;;;2.15;1.10;;;24.80;99.90;;;;;;5098623;28;20493;-67
2022/06/16 12:46:36;;;;;;;3.85;1.70;;;24.80;99.10;;;;;;5069212;27;20052;-67
2022/06/16 12:49:10;;;;;;;3.60;1.75;;;24.60;98.50;;;;;;5091705;28;20054;-67
2022/06/16 12:51:45;;;;;;;3.60;1.40;;;24.50;98.90;;;;;;5077522;28;20070;-67
2022/06/16 12:54:17;;;;;;;3.08;1.70;;;24.30;99.60;;;;;;5097505;28;20593;-67
2022/06/16 12:56:53;;;;;;;2.80;1.40;;;24.50;99.90;;;;;;5111609;27;20470;-67
2022/06/16 12:59:24;;;;;;;3.15;1.60;;;24.70;99.40;;;;;;5079604;28;20040;-67
2022/06/16 13:01:54;;;;;;;3.20;1.20;;;24.80;99.10;;;;;;5076692;28;20051;-67
2022/06/16 13:04:28;;;;;;;4.45;1.58;;;24.90;98.50;;;;;;5076215;28;20039;-67
2022/06/16 13:06:56;;;;;;;3.20;1.65;;;24.90;98.90;;;;;;5078160;28;20039;-67
2022/06/16 13:09:25;;;;;;;3.17;1.27;;;25.00;98.70;;;;;;5061545;28;20051;-67
2022/06/16 13:11:58;;;;;;;3.60;1.42;;;25.00;98.50;;;;;;5077773;28;20082;-67
2022/06/16 13:14:47;;;;;;;3.88;1.27;;;25.00;98.80;;;;;;5098255;28;20024;-67
2022/06/16 13:17:13;;;;;;;3.50;1.50;;;25.10;99.30;;;;;;5098598;28;20036;-67
2022/06/16 13:19:41;;;;;;;3.08;1.63;;;25.10;99.50;;;;;;5098153;28;20032;-67
2022/06/16 13:22:18;;;;;;;3.17;1.08;;;25.00;99.20;;;;;;5091272;28;20048;-67
2022/06/16 13:24:50;;;;;;;3.78;1.60;;;24.90;98.90;;;;;;5093897;28;20067;-67
2022/06/16 13:27:28;;;;;;;5.72;2.08;;;25.00;99.90;;;;;;5097431;28;20565;-67
2022/06/16 13:30:32;;;;;;;3.95;1.50;;;25.00;99.30;;;;;;5081188;28;20043;-67
2022/06/16 13:33:07;;;;;;;3.58;1.58;;;24.80;97.90;;;;;;5098711;28;20044;-67
2022/06/16 13:35:49;;;;;;;6.13;1.85;;;24.80;98.80;;;;;;5097485;28;20103;-67